Time;durP1;ratioP1;P1;durP2;ratioP2;P2;SDS_P1;SDS_P2;PMS_P1;PMS_P2;Temp;Humidity;BMP_temperature;BMP_pressure;BME280_temperature;BME280_humidity;BME280_pressure;Samples;Min_cycle;Max_cycle;Signal;HPM_P1;HPM_P2
2023/05/13 00:00:57;;;;;;;4.95;3.80;;;18.50;60.60;;;;;;5108680;27;45245;-71
2023/05/13 00:03:24;;;;;;;5.28;3.78;;;18.40;60.70;;;;;;5108481;27;46499;-71
2023/05/13 00:05:51;;;;;;;5.57;3.80;;;18.40;60.90;;;;;;5108323;27;45373;-70
2023/05/13 00:08:18;;;;;;;3.97;3.30;;;18.40;60.70;;;;;;5108364;27;45353;-71
2023/05/13 00:10:45;;;;;;;3.88;3.47;;;18.40;60.70;;;;;;5108451;27;45224;-71
2023/05/13 00:13:12;;;;;;;5.35;3.90;;;18.40;60.70;;;;;;5108075;27;46472;-71
2023/05/13 00:15:39;;;;;;;6.30;3.70;;;18.40;60.60;;;;;;5108055;27;45178;-70
2023/05/13 00:18:07;;;;;;;4.47;3.90;;;18.40;60.70;;;;;;5108371;27;45385;-70
2023/05/13 00:20:34;;;;;;;6.25;3.70;;;18.30;61.20;;;;;;5108398;27;45419;-70
2023/05/13 00:23:02;;;;;;;3.80;3.33;;;18.30;60.70;;;;;;5107980;27;45240;-70
2023/05/13 00:25:28;;;;;;;4.75;3.70;;;18.30;60.60;;;;;;5107813;27;45264;-70
2023/05/13 00:27:55;;;;;;;4.60;3.92;;;18.30;60.50;;;;;;5108059;27;45525;-70
2023/05/13 00:30:22;;;;;;;6.18;3.92;;;18.30;60.50;;;;;;5108160;27;45372;-71
2023/05/13 00:32:49;;;;;;;5.88;3.60;;;18.30;60.50;;;;;;5108008;27;46738;-71
2023/05/13 00:35:17;;;;;;;4.53;3.53;;;18.30;60.40;;;;;;5107754;27;45278;-71
2023/05/13 00:37:44;;;;;;;3.67;3.25;;;18.30;60.30;;;;;;5107969;27;45273;-71
2023/05/13 00:40:17;;;;;;;4.05;3.63;;;18.30;60.40;;;;;;5108131;27;45416;-70
2023/05/13 00:42:44;;;;;;;4.00;3.53;;;18.30;60.40;;;;;;5107686;27;47310;-71
2023/05/13 00:45:11;;;;;;;4.03;3.22;;;18.20;60.70;;;;;;5107513;27;45415;-71
2023/05/13 00:47:38;;;;;;;3.95;3.13;;;18.30;60.40;;;;;;5107542;27;45314;-71
2023/05/13 00:50:06;;;;;;;6.13;3.20;;;18.20;60.40;;;;;;5107700;27;45551;-70
2023/05/13 00:52:34;;;;;;;4.15;3.13;;;18.20;60.40;;;;;;5107411;27;46373;-70
2023/05/13 00:55:01;;;;;;;3.17;2.88;;;18.20;60.30;;;;;;5107426;27;45386;-70
2023/05/13 00:57:28;;;;;;;4.45;3.35;;;18.20;60.30;;;;;;5107872;27;45339;-70
2023/05/13 00:59:55;;;;;;;3.83;3.10;;;18.20;61.00;;;;;;5107695;27;45441;-70
2023/05/13 01:02:34;;;;;;;3.17;2.88;;;18.20;60.20;;;;;;5106932;27;46589;-70
2023/05/13 01:05:06;;;;;;;3.80;3.20;;;18.20;60.20;;;;;;5107289;27;45402;-71
2023/05/13 01:07:38;;;;;;;4.68;3.40;;;18.20;60.20;;;;;;5107170;27;45248;-70
2023/05/13 01:10:08;;;;;;;4.95;3.50;;;18.20;60.20;;;;;;5107309;27;45379;-70
2023/05/13 01:12:36;;;;;;;4.50;3.50;;;18.20;60.20;;;;;;5107211;27;45305;-70
2023/05/13 01:15:05;;;;;;;3.05;2.75;;;18.20;60.20;;;;;;5107094;27;45502;-70
2023/05/13 01:17:33;;;;;;;4.20;2.70;;;18.10;60.10;;;;;;5107228;27;45254;-70
2023/05/13 01:20:00;;;;;;;3.63;3.00;;;18.10;60.10;;;;;;5107552;27;45318;-70
2023/05/13 01:22:29;;;;;;;3.72;2.95;;;18.10;60.10;;;;;;5107192;27;46311;-71
2023/05/13 01:24:56;;;;;;;3.28;2.97;;;18.10;60.00;;;;;;5107051;27;45238;-71
2023/05/13 01:27:22;;;;;;;3.15;2.80;;;18.10;60.00;;;;;;5107197;27;45133;-71
2023/05/13 01:29:49;;;;;;;4.28;3.10;;;18.10;60.00;;;;;;5107224;27;45468;-71
2023/05/13 01:32:16;;;;;;;3.22;2.92;;;18.10;60.00;;;;;;5106773;27;46830;-70
2023/05/13 01:34:43;;;;;;;3.88;3.20;;;18.10;60.00;;;;;;5107311;27;45401;-71
2023/05/13 01:37:10;;;;;;;3.67;3.28;;;18.00;59.90;;;;;;5107016;27;45293;-71
2023/05/13 01:39:38;;;;;;;3.65;3.15;;;18.00;59.90;;;;;;5107246;27;45466;-70
2023/05/13 01:42:05;;;;;;;3.95;2.97;;;18.00;59.90;;;;;;5106799;27;46675;-70
2023/05/13 01:44:32;;;;;;;3.50;2.97;;;18.00;59.90;;;;;;5106600;27;45329;-70
2023/05/13 01:46:59;;;;;;;5.47;3.10;;;18.00;59.90;;;;;;5106749;27;45293;-70
2023/05/13 01:49:26;;;;;;;3.08;2.78;;;18.00;59.90;;;;;;5106985;27;45279;-71
2023/05/13 01:51:53;;;;;;;3.85;2.72;;;18.00;59.80;;;;;;5106561;27;46436;-71
2023/05/13 01:54:20;;;;;;;3.47;2.55;;;18.00;59.80;;;;;;5106281;27;45364;-70
2023/05/13 01:56:48;;;;;;;3.08;2.70;;;18.00;59.80;;;;;;5106619;27;45447;-70
2023/05/13 01:59:15;;;;;;;3.17;2.78;;;17.90;59.70;;;;;;5106972;27;45349;-70
2023/05/13 02:01:41;;;;;;;3.10;2.72;;;17.90;59.70;;;;;;5106433;27;47002;-71
2023/05/13 02:04:08;;;;;;;3.50;2.63;;;17.90;59.70;;;;;;5106614;27;45271;-70
2023/05/13 02:06:35;;;;;;;2.75;2.53;;;17.90;59.70;;;;;;5106723;27;45409;-71
2023/05/13 02:09:02;;;;;;;3.00;2.70;;;17.90;59.70;;;;;;5106722;27;45229;-71
2023/05/13 02:11:29;;;;;;;3.97;2.72;;;17.90;59.60;;;;;;5106238;27;46482;-70
2023/05/13 02:13:57;;;;;;;2.75;2.55;;;17.90;59.70;;;;;;5105663;27;45466;-70
2023/05/13 02:16:24;;;;;;;3.45;2.47;;;17.90;59.60;;;;;;5106466;27;45255;-71
2023/05/13 02:18:51;;;;;;;3.63;2.70;;;17.90;59.70;;;;;;5106498;27;45180;-72
2023/05/13 02:21:18;;;;;;;2.85;2.65;;;17.90;59.60;;;;;;5106284;27;46607;-70
2023/05/13 02:23:44;;;;;;;3.58;2.58;;;17.90;59.60;;;;;;5106070;27;45322;-70
2023/05/13 02:26:11;;;;;;;2.70;2.50;;;17.90;59.60;;;;;;5106450;27;45344;-70
2023/05/13 02:28:38;;;;;;;2.97;2.42;;;17.80;59.60;;;;;;5106206;27;45257;-70
2023/05/13 02:31:06;;;;;;;2.50;2.30;;;17.80;59.60;;;;;;5105962;27;46269;-71
2023/05/13 02:33:33;;;;;;;2.90;2.60;;;17.80;59.60;;;;;;5105983;27;45366;-70
2023/05/13 02:36:00;;;;;;;2.95;2.47;;;17.80;59.60;;;;;;5106155;27;45378;-70
2023/05/13 02:38:27;;;;;;;4.68;2.60;;;17.80;59.60;;;;;;5106191;27;45303;-70
2023/05/13 02:40:54;;;;;;;3.35;2.47;;;17.80;59.60;;;;;;5105770;27;45260;-70
2023/05/13 02:43:22;;;;;;;2.22;2.03;;;17.80;59.60;;;;;;5105744;27;45200;-71
2023/05/13 02:45:49;;;;;;;3.03;2.38;;;17.80;59.60;;;;;;5105873;27;45298;-70
2023/05/13 02:48:17;;;;;;;3.10;2.53;;;17.70;59.60;;;;;;5105293;27;45355;-71
2023/05/13 02:50:44;;;;;;;2.40;2.20;;;17.70;59.50;;;;;;5105593;27;45322;-71
2023/05/13 02:53:11;;;;;;;3.10;2.20;;;17.70;59.50;;;;;;5105550;27;45326;-70
2023/05/13 02:55:37;;;;;;;2.60;2.35;;;17.70;59.60;;;;;;5105657;27;45389;-71
2023/05/13 02:58:04;;;;;;;1.80;1.70;;;17.70;59.60;;;;;;5105770;27;45412;-71
2023/05/13 03:00:31;;;;;;;4.43;2.60;;;17.70;59.60;;;;;;5105599;27;47614;-70
2023/05/13 03:02:58;;;;;;;2.40;2.17;;;17.70;59.60;;;;;;5105503;27;45263;-70
2023/05/13 03:05:26;;;;;;;2.45;2.25;;;17.70;59.60;;;;;;5105445;27;45197;-70
2023/05/13 03:07:53;;;;;;;2.47;2.28;;;17.70;59.60;;;;;;5105650;27;45376;-70
2023/05/13 03:10:20;;;;;;;1.92;1.83;;;17.70;59.60;;;;;;5105568;27;46396;-70
2023/05/13 03:12:46;;;;;;;3.33;2.47;;;17.70;59.50;;;;;;5105687;27;45370;-70
2023/05/13 03:15:15;;;;;;;3.00;2.15;;;17.70;59.50;;;;;;5105948;27;45343;-70
2023/05/13 03:17:43;;;;;;;2.17;1.95;;;17.70;59.50;;;;;;5105921;27;45305;-70
2023/05/13 03:20:11;;;;;;;2.17;1.98;;;17.70;59.50;;;;;;5105308;27;46717;-70
2023/05/13 03:22:39;;;;;;;3.08;2.45;;;17.60;59.50;;;;;;5105065;27;45260;-70
2023/05/13 03:25:06;;;;;;;2.72;2.38;;;17.60;59.50;;;;;;5106379;27;45291;-70
2023/05/13 03:27:33;;;;;;;2.63;2.42;;;17.60;59.90;;;;;;5109416;27;45390;-70
2023/05/13 03:30:00;;;;;;;2.00;1.90;;;17.60;59.50;;;;;;5108921;27;45319;-70
2023/05/13 03:32:29;;;;;;;2.42;2.20;;;17.60;59.40;;;;;;5108581;27;45306;-70
2023/05/13 03:34:56;;;;;;;2.90;2.40;;;17.60;59.50;;;;;;5108936;27;45276;-70
2023/05/13 03:37:23;;;;;;;2.50;2.30;;;17.60;59.40;;;;;;5109089;27;45249;-71
2023/05/13 03:39:51;;;;;;;2.72;2.35;;;17.60;59.40;;;;;;5108609;27;45469;-70
2023/05/13 03:42:19;;;;;;;2.80;2.30;;;17.60;59.40;;;;;;5108708;27;45280;-71
2023/05/13 03:44:46;;;;;;;2.42;2.22;;;17.60;59.40;;;;;;5108837;27;45138;-72
2023/05/13 03:47:13;;;;;;;2.92;2.40;;;17.60;59.40;;;;;;5108601;27;45486;-72
2023/05/13 03:49:39;;;;;;;2.33;2.13;;;17.60;59.40;;;;;;5108620;27;45498;-72
2023/05/13 03:52:07;;;;;;;3.20;2.10;;;17.60;59.40;;;;;;5108608;27;45571;-72
2023/05/13 03:54:34;;;;;;;3.20;2.22;;;17.50;59.40;;;;;;5108645;27;45307;-70
2023/05/13 03:57:02;;;;;;;2.00;1.90;;;17.50;59.40;;;;;;5108818;27;45327;-71
2023/05/13 03:59:29;;;;;;;2.75;2.20;;;17.50;60.00;;;;;;5108142;27;45326;-71
2023/05/13 04:01:56;;;;;;;2.28;2.00;;;17.50;59.30;;;;;;5108021;27;45442;-71
2023/05/13 04:04:23;;;;;;;3.20;2.30;;;17.50;59.30;;;;;;5108181;27;45439;-71
2023/05/13 04:06:50;;;;;;;2.15;2.05;;;17.50;59.30;;;;;;5108301;27;45537;-71
2023/05/13 04:09:16;;;;;;;2.47;2.17;;;17.60;59.40;;;;;;5107803;27;46406;-71
2023/05/13 04:11:43;;;;;;;1.85;1.75;;;17.50;59.30;;;;;;5108085;27;45390;-71
2023/05/13 04:14:11;;;;;;;2.33;2.15;;;17.50;59.30;;;;;;5108184;27;45347;-71
2023/05/13 04:16:38;;;;;;;2.10;1.92;;;17.50;59.30;;;;;;5108461;27;45282;-71
2023/05/13 04:19:05;;;;;;;2.28;2.03;;;17.50;59.30;;;;;;5107913;27;46789;-71
2023/05/13 04:21:32;;;;;;;2.35;2.03;;;17.50;59.30;;;;;;5108026;27;45294;-71
2023/05/13 04:23:59;;;;;;;2.10;2.00;;;17.50;59.30;;;;;;5107783;27;45389;-72
2023/05/13 04:26:26;;;;;;;2.38;2.15;;;17.50;59.30;;;;;;5108382;27;45385;-71
2023/05/13 04:28:53;;;;;;;3.15;2.00;;;17.50;59.30;;;;;;5108224;27;45470;-71
2023/05/13 04:31:21;;;;;;;1.75;1.65;;;17.50;59.30;;;;;;5108293;27;45206;-71
2023/05/13 04:33:48;;;;;;;2.20;2.00;;;17.50;59.30;;;;;;5108189;27;45321;-71
2023/05/13 04:36:15;;;;;;;2.05;1.95;;;17.50;59.30;;;;;;5107907;27;45377;-71
2023/05/13 04:38:41;;;;;;;2.92;1.95;;;17.50;59.30;;;;;;5108037;27;46388;-71
2023/05/13 04:41:08;;;;;;;1.88;1.73;;;17.50;59.30;;;;;;5107807;27;45322;-72
2023/05/13 04:43:35;;;;;;;2.70;2.10;;;17.40;59.90;;;;;;5108308;27;45419;-71
2023/05/13 04:46:02;;;;;;;1.90;1.80;;;17.50;59.30;;;;;;5108133;27;45305;-71
2023/05/13 04:48:30;;;;;;;2.22;2.03;;;17.50;59.30;;;;;;5107207;27;46416;-72
2023/05/13 04:50:57;;;;;;;2.38;1.70;;;17.40;59.30;;;;;;5107693;27;45322;-71
2023/05/13 04:53:24;;;;;;;2.40;2.05;;;17.50;59.30;;;;;;5107864;27;45318;-71
2023/05/13 04:55:56;;;;;;;2.33;2.10;;;17.50;59.30;;;;;;5107861;27;45316;-71
2023/05/13 04:58:23;;;;;;;2.08;1.95;;;17.50;59.30;;;;;;5107524;27;46765;-70
2023/05/13 05:00:50;;;;;;;2.22;1.90;;;17.40;59.30;;;;;;5107986;27;45288;-71
2023/05/13 05:03:17;;;;;;;1.90;1.80;;;17.40;59.30;;;;;;5107573;27;45185;-70
2023/05/13 05:05:45;;;;;;;2.25;1.83;;;17.40;59.30;;;;;;5107754;27;45186;-69
2023/05/13 05:08:12;;;;;;;2.17;1.95;;;17.40;59.50;;;;;;5107213;27;45508;-69
2023/05/13 05:10:39;;;;;;;2.33;1.92;;;17.40;59.30;;;;;;5107448;27;45360;-70
2023/05/13 05:13:06;;;;;;;1.75;1.65;;;17.40;59.30;;;;;;5107841;27;45242;-70
2023/05/13 05:15:32;;;;;;;2.00;1.80;;;17.40;59.30;;;;;;5107770;27;45493;-70
2023/05/13 05:17:59;;;;;;;3.33;1.90;;;17.50;59.30;;;;;;5107209;27;45394;-70
2023/05/13 05:20:26;;;;;;;2.00;1.80;;;17.40;59.30;;;;;;5107098;27;45477;-71
2023/05/13 05:22:54;;;;;;;1.45;1.35;;;17.40;59.30;;;;;;5107500;27;45286;-72
2023/05/13 05:25:23;;;;;;;2.20;1.80;;;17.40;59.30;;;;;;5107420;27;45240;-71
2023/05/13 05:27:50;;;;;;;2.42;1.83;;;17.40;59.80;;;;;;5107162;27;47370;-70
2023/05/13 05:30:17;;;;;;;1.90;1.80;;;17.40;59.30;;;;;;5107122;27;45448;-70
2023/05/13 05:32:44;;;;;;;2.17;1.85;;;17.40;59.30;;;;;;5106917;27;45358;-71
2023/05/13 05:35:10;;;;;;;1.60;1.50;;;17.40;59.30;;;;;;5107332;27;45250;-70
2023/05/13 05:37:37;;;;;;;2.35;1.85;;;17.40;59.30;;;;;;5107042;27;46639;-71
2023/05/13 05:40:07;;;;;;;1.70;1.60;;;17.40;59.30;;;;;;5106924;27;45260;-71
2023/05/13 05:42:34;;;;;;;1.67;1.58;;;17.40;59.30;;;;;;5107082;27;45433;-71
2023/05/13 05:45:01;;;;;;;3.13;2.20;;;17.40;59.30;;;;;;5106840;27;45549;-70
2023/05/13 05:47:28;;;;;;;1.90;1.80;;;17.40;59.30;;;;;;5105283;27;45312;-70
2023/05/13 05:49:54;;;;;;;1.73;1.63;;;17.40;59.30;;;;;;5106736;27;45436;-70
2023/05/13 05:52:21;;;;;;;1.88;1.70;;;17.40;59.30;;;;;;5106900;27;45348;-70
2023/05/13 05:54:48;;;;;;;1.92;1.67;;;17.40;59.30;;;;;;5106744;27;45444;-71
2023/05/13 05:57:16;;;;;;;2.15;1.50;;;17.40;59.40;;;;;;5106710;27;47261;-70
2023/05/13 05:59:43;;;;;;;1.80;1.70;;;17.40;59.30;;;;;;5106481;27;45297;-71
2023/05/13 06:02:10;;;;;;;1.60;1.50;;;17.40;59.30;;;;;;5106636;27;45460;-70
2023/05/13 06:04:37;;;;;;;1.70;1.60;;;17.40;59.30;;;;;;5106768;27;45389;-71
2023/05/13 06:07:04;;;;;;;1.50;1.40;;;17.40;59.30;;;;;;5106404;27;46309;-70
2023/05/13 06:09:31;;;;;;;1.88;1.63;;;17.40;59.30;;;;;;5106343;27;45261;-70
2023/05/13 06:11:57;;;;;;;1.85;1.70;;;17.40;59.40;;;;;;5106562;27;45323;-70
2023/05/13 06:14:26;;;;;;;1.70;1.60;;;17.40;59.40;;;;;;5106496;27;45295;-69
2023/05/13 06:16:53;;;;;;;1.70;1.60;;;17.40;59.40;;;;;;5105921;27;47341;-70
2023/05/13 06:19:19;;;;;;;1.70;1.60;;;17.40;59.40;;;;;;5106108;27;45439;-70
2023/05/13 06:21:47;;;;;;;1.65;1.55;;;17.40;59.40;;;;;;5106403;27;45250;-70
2023/05/13 06:24:14;;;;;;;1.60;1.50;;;17.40;59.40;;;;;;5106411;27;45208;-70
2023/05/13 06:26:41;;;;;;;2.17;1.92;;;17.40;59.40;;;;;;5106261;27;45457;-70
2023/05/13 06:29:07;;;;;;;1.80;1.70;;;17.40;59.40;;;;;;5106284;27;45440;-70
2023/05/13 06:31:36;;;;;;;1.80;1.67;;;17.40;59.40;;;;;;5106223;27;45286;-70
2023/05/13 06:34:03;;;;;;;1.60;1.50;;;17.40;59.40;;;;;;5106473;27;45317;-71
2023/05/13 06:36:30;;;;;;;1.50;1.40;;;17.40;59.40;;;;;;5105994;27;45421;-71
2023/05/13 06:38:57;;;;;;;3.63;1.50;;;17.40;59.40;;;;;;5106202;27;45294;-71
2023/05/13 06:41:24;;;;;;;1.73;1.63;;;17.40;59.40;;;;;;5106148;27;45290;-70
2023/05/13 06:43:51;;;;;;;1.60;1.50;;;17.40;59.40;;;;;;5106177;27;45182;-70
2023/05/13 06:46:18;;;;;;;1.60;1.50;;;17.40;59.40;;;;;;5105907;27;45761;-70
2023/05/13 06:48:46;;;;;;;1.70;1.60;;;17.40;59.40;;;;;;5105881;27;45159;-70
2023/05/13 06:51:13;;;;;;;1.70;1.60;;;17.40;59.40;;;;;;5106153;27;45316;-70
2023/05/13 06:53:40;;;;;;;1.67;1.58;;;17.40;59.40;;;;;;5106158;27;45419;-70
2023/05/13 06:56:07;;;;;;;1.60;1.50;;;17.40;59.40;;;;;;5105593;27;45303;-71
2023/05/13 06:58:34;;;;;;;1.60;1.50;;;17.50;59.40;;;;;;5105836;27;45286;-70
2023/05/13 07:01:01;;;;;;;2.78;1.50;;;17.40;59.40;;;;;;5109469;27;45264;-70
2023/05/13 07:03:27;;;;;;;1.73;1.63;;;17.40;59.40;;;;;;5109720;27;45508;-71
2023/05/13 07:05:56;;;;;;;1.40;1.30;;;17.40;59.40;;;;;;5109222;27;45316;-70
2023/05/13 07:08:23;;;;;;;2.00;1.88;;;17.40;59.40;;;;;;5109211;27;45276;-70
2023/05/13 07:10:49;;;;;;;1.90;1.70;;;17.50;59.40;;;;;;5109359;27;45340;-69
2023/05/13 07:13:19;;;;;;;1.60;1.50;;;17.50;59.40;;;;;;5109626;27;45294;-70
2023/05/13 07:15:46;;;;;;;1.85;1.48;;;17.40;59.40;;;;;;5108957;27;46416;-70
2023/05/13 07:18:13;;;;;;;1.70;1.52;;;17.40;59.40;;;;;;5109135;27;45324;-72
2023/05/13 07:20:39;;;;;;;1.92;1.80;;;17.50;59.40;;;;;;5109167;27;45313;-71
2023/05/13 07:23:08;;;;;;;1.90;1.55;;;17.50;59.40;;;;;;5109240;27;45509;-71
2023/05/13 07:25:35;;;;;;;1.30;1.15;;;17.50;60.00;;;;;;5108883;27;45296;-71
2023/05/13 07:28:01;;;;;;;1.52;1.42;;;17.50;59.40;;;;;;5108928;27;45279;-71
2023/05/13 07:30:28;;;;;;;1.70;1.60;;;17.50;59.50;;;;;;5108812;27;45294;-71
2023/05/13 07:32:55;;;;;;;1.55;1.45;;;17.50;59.40;;;;;;5109215;27;45342;-71
2023/05/13 07:35:22;;;;;;;1.65;1.55;;;17.50;59.40;;;;;;5108693;27;45377;-72
2023/05/13 07:37:49;;;;;;;2.47;1.60;;;17.50;59.40;;;;;;5108662;27;45253;-72
2023/05/13 07:40:18;;;;;;;1.35;1.33;;;17.50;59.40;;;;;;5108895;27;45382;-70
2023/05/13 07:42:45;;;;;;;1.80;1.63;;;17.50;59.40;;;;;;5108700;27;45339;-71
2023/05/13 07:45:12;;;;;;;2.03;1.20;;;17.50;59.40;;;;;;5108449;27;47357;-71
2023/05/13 07:47:39;;;;;;;1.60;1.45;;;17.50;59.40;;;;;;5108390;27;45315;-72
2023/05/13 07:50:07;;;;;;;1.80;1.40;;;17.50;59.30;;;;;;5108883;27;45315;-69
2023/05/13 07:52:34;;;;;;;1.65;1.55;;;17.50;59.30;;;;;;5109022;27;45345;-71
2023/05/13 07:55:01;;;;;;;1.70;1.60;;;17.50;59.30;;;;;;5108531;27;46414;-72
2023/05/13 07:57:29;;;;;;;1.25;1.20;;;17.60;59.40;;;;;;5108541;27;45441;-71
2023/05/13 07:59:56;;;;;;;2.53;1.85;;;17.50;59.90;;;;;;5108666;27;45283;-70
2023/05/13 08:02:23;;;;;;;1.60;1.50;;;17.50;59.30;;;;;;5108882;27;45188;-70
2023/05/13 08:04:50;;;;;;;1.48;1.38;;;17.50;59.20;;;;;;5108279;27;45522;-70
2023/05/13 08:07:17;;;;;;;1.60;1.50;;;17.50;59.30;;;;;;5108315;27;45235;-70
2023/05/13 08:09:43;;;;;;;1.52;1.42;;;17.50;59.20;;;;;;5108520;27;45345;-70
2023/05/13 08:12:10;;;;;;;1.80;1.70;;;17.50;59.20;;;;;;5107850;27;45313;-70
2023/05/13 08:14:38;;;;;;;1.63;1.50;;;17.60;59.30;;;;;;5108129;27;46390;-70
2023/05/13 08:17:06;;;;;;;2.75;1.60;;;17.60;59.30;;;;;;5108145;27;45330;-70
2023/05/13 08:19:33;;;;;;;1.90;1.63;;;17.60;59.20;;;;;;5108337;27;45392;-71
2023/05/13 08:22:00;;;;;;;2.17;1.70;;;17.60;59.20;;;;;;5108390;27;45310;-70
2023/05/13 08:24:27;;;;;;;1.70;1.60;;;17.60;59.20;;;;;;5107753;27;45448;-72
2023/05/13 08:26:53;;;;;;;1.40;1.30;;;17.60;59.10;;;;;;5107554;27;45303;-71
2023/05/13 08:29:20;;;;;;;2.15;1.88;;;17.60;59.10;;;;;;5108014;27;45251;-70
2023/05/13 08:31:48;;;;;;;2.28;1.42;;;17.70;59.10;;;;;;5108140;27;45199;-71
2023/05/13 08:34:15;;;;;;;2.72;1.70;;;17.70;59.20;;;;;;5107500;27;45463;-70
2023/05/13 08:36:42;;;;;;;1.55;1.45;;;17.70;59.10;;;;;;5107402;27;45383;-70
2023/05/13 08:39:09;;;;;;;1.60;1.30;;;17.70;59.00;;;;;;5107945;27;45274;-70
2023/05/13 08:41:36;;;;;;;1.40;1.33;;;17.70;58.90;;;;;;5108053;27;45249;-70
2023/05/13 08:44:04;;;;;;;1.60;1.50;;;17.80;58.90;;;;;;5107363;27;45462;-70
2023/05/13 08:46:31;;;;;;;1.15;1.13;;;17.80;58.90;;;;;;5107255;27;45281;-70
2023/05/13 08:49:00;;;;;;;1.63;1.52;;;17.80;58.80;;;;;;5107331;27;45298;-70
2023/05/13 08:51:27;;;;;;;2.00;1.67;;;17.80;58.70;;;;;;5107683;27;45205;-70
2023/05/13 08:53:54;;;;;;;1.65;1.52;;;17.80;58.90;;;;;;5107235;27;45467;-70
2023/05/13 08:56:24;;;;;;;1.42;1.33;;;17.80;58.80;;;;;;5107650;27;45413;-70
2023/05/13 08:58:51;;;;;;;1.90;1.70;;;17.90;58.80;;;;;;5107424;27;45295;-70
2023/05/13 09:01:18;;;;;;;1.95;1.63;;;17.90;58.90;;;;;;5107538;27;45369;-69
2023/05/13 09:03:51;;;;;;;2.67;1.67;;;17.90;58.90;;;;;;5106957;27;46736;-70
2023/05/13 09:06:19;;;;;;;1.75;1.50;;;17.90;59.00;;;;;;5107207;27;45260;-69
2023/05/13 09:08:46;;;;;;;3.75;1.73;;;17.90;59.00;;;;;;5106748;27;45377;-70
2023/05/13 09:11:13;;;;;;;1.50;1.30;;;18.00;59.10;;;;;;5106520;27;45539;-69
2023/05/13 09:13:40;;;;;;;1.50;1.40;;;18.00;59.20;;;;;;5105446;27;45283;-70
2023/05/13 09:16:07;;;;;;;3.20;1.42;;;18.00;59.30;;;;;;5106547;27;45322;-70
2023/05/13 09:18:34;;;;;;;2.75;1.63;;;18.00;59.50;;;;;;5106981;27;45242;-70
2023/05/13 09:21:23;;;;;;;4.50;1.70;;;18.10;59.60;;;;;;5107354;27;45469;-70
2023/05/13 09:23:50;;;;;;;2.50;1.75;;;18.10;59.70;;;;;;5106997;27;46668;-70
2023/05/13 09:26:27;;;;;;;1.60;1.50;;;18.10;59.80;;;;;;5106498;27;45322;-71
2023/05/13 09:29:13;;;;;;;2.38;1.70;;;18.10;59.90;;;;;;5105896;27;45485;-70
2023/05/13 09:31:40;;;;;;;1.75;1.58;;;18.20;60.00;;;;;;5100660;27;45451;-70
2023/05/13 09:34:06;;;;;;;2.17;1.70;;;18.20;60.00;;;;;;5105261;27;46494;-70
2023/05/13 09:36:35;;;;;;;1.85;1.70;;;18.20;60.00;;;;;;5106204;27;45549;-70
2023/05/13 09:39:02;;;;;;;1.63;1.50;;;18.20;60.00;;;;;;5105174;27;45523;-70
2023/05/13 09:41:29;;;;;;;2.58;1.30;;;18.20;60.00;;;;;;5106157;27;45268;-70
2023/05/13 09:43:57;;;;;;;2.42;1.88;;;18.20;60.10;;;;;;5106167;27;45470;-70
2023/05/13 09:46:24;;;;;;;1.90;1.70;;;18.30;60.10;;;;;;5105979;27;45352;-70
2023/05/13 09:48:55;;;;;;;3.05;1.98;;;18.30;60.10;;;;;;5104933;27;45317;-72
2023/05/13 09:51:26;;;;;;;1.50;1.40;;;18.30;60.10;;;;;;5105548;27;45399;-70
2023/05/13 09:53:55;;;;;;;4.38;2.00;;;18.30;60.20;;;;;;5106238;27;45970;-71
2023/05/13 09:56:22;;;;;;;2.40;1.83;;;18.30;60.20;;;;;;5100580;27;45511;-74
2023/05/13 09:58:51;;;;;;;6.55;2.22;;;18.40;60.20;;;;;;5101758;27;45395;-73
2023/05/13 10:01:18;;;;;;;3.13;1.45;;;18.40;60.10;;;;;;5106097;27;45248;-72
2023/05/13 10:03:45;;;;;;;2.30;1.80;;;18.40;60.20;;;;;;5105981;27;46354;-70
2023/05/13 10:06:12;;;;;;;2.17;1.80;;;18.40;60.10;;;;;;5106355;27;45472;-73
2023/05/13 10:08:39;;;;;;;2.22;2.03;;;18.40;60.10;;;;;;5104984;27;45669;-71
2023/05/13 10:11:08;;;;;;;5.65;1.63;;;18.40;60.00;;;;;;5104581;27;45378;-71
2023/05/13 10:13:34;;;;;;;5.25;1.90;;;18.40;60.00;;;;;;5104604;27;46350;-71
2023/05/13 10:16:01;;;;;;;5.30;1.52;;;18.50;60.30;;;;;;5103651;27;45283;-70
2023/05/13 10:18:28;;;;;;;2.83;1.48;;;18.50;60.20;;;;;;5105677;27;45411;-70
2023/05/13 10:20:55;;;;;;;2.83;1.88;;;18.50;60.20;;;;;;5105285;27;45394;-71
2023/05/13 10:23:22;;;;;;;4.38;1.92;;;18.50;60.20;;;;;;5105423;27;46692;-69
2023/05/13 10:25:50;;;;;;;5.05;1.88;;;18.60;60.20;;;;;;5103813;27;45403;-70
2023/05/13 10:28:18;;;;;;;1.90;1.80;;;18.60;60.20;;;;;;5105505;27;45287;-71
2023/05/13 10:30:45;;;;;;;2.75;1.90;;;18.60;60.20;;;;;;5105560;27;45445;-73
2023/05/13 10:33:12;;;;;;;3.08;1.73;;;18.60;60.20;;;;;;5105255;27;46684;-71
2023/05/13 10:35:42;;;;;;;4.78;1.70;;;18.60;60.10;;;;;;5107933;27;45479;-72
2023/05/13 10:38:10;;;;;;;8.77;1.75;;;18.60;60.20;;;;;;5109324;27;45294;-71
2023/05/13 10:41:10;;;;;;;4.43;1.90;;;18.60;60.20;;;;;;5108928;27;45332;-72
2023/05/13 10:43:38;;;;;;;3.65;1.90;;;18.70;60.40;;;;;;5108054;27;46525;-71
2023/05/13 10:46:06;;;;;;;1.90;1.63;;;18.70;60.50;;;;;;5108278;27;45258;-71
2023/05/13 10:48:41;;;;;;;4.68;1.70;;;18.70;60.70;;;;;;5108036;27;45319;-72
2023/05/13 10:51:08;;;;;;;2.05;1.77;;;18.80;60.70;;;;;;5109077;27;45394;-70
2023/05/13 10:53:43;;;;;;;3.13;1.52;;;18.80;60.70;;;;;;5108210;27;45512;-72
2023/05/13 10:56:10;;;;;;;2.20;1.70;;;18.80;60.60;;;;;;5107154;27;45319;-70
2023/05/13 10:58:39;;;;;;;3.97;1.80;;;18.80;60.50;;;;;;5108785;27;45402;-70
2023/05/13 11:01:16;;;;;;;6.97;1.83;;;18.80;60.30;;;;;;5108332;27;45367;-71
2023/05/13 11:03:51;;;;;;;2.33;1.52;;;18.80;60.30;;;;;;5108459;27;48375;-70
2023/05/13 11:06:19;;;;;;;6.70;1.70;;;18.80;60.40;;;;;;5108619;27;45329;-70
2023/05/13 11:08:46;;;;;;;1.67;1.50;;;18.90;60.50;;;;;;5108679;27;45444;-70
2023/05/13 11:11:27;;;;;;;1.92;1.65;;;18.80;60.60;;;;;;5108495;27;45265;-71
2023/05/13 11:13:55;;;;;;;3.88;1.75;;;18.90;60.70;;;;;;5108376;27;45256;-71
2023/05/13 11:16:22;;;;;;;2.08;1.50;;;18.90;60.70;;;;;;5108595;27;45430;-71
2023/05/13 11:18:50;;;;;;;1.65;1.40;;;18.90;60.60;;;;;;5108311;27;45286;-71
2023/05/13 11:21:17;;;;;;;2.28;1.63;;;18.90;60.70;;;;;;5108875;27;45335;-70
2023/05/13 11:23:51;;;;;;;4.10;1.70;;;18.90;60.60;;;;;;5108169;27;46712;-71
2023/05/13 11:26:20;;;;;;;5.68;2.08;;;18.90;60.60;;;;;;5107838;27;45497;-71
2023/05/13 11:29:03;;;;;;;2.00;1.63;;;18.90;60.60;;;;;;5106932;27;45463;-72
2023/05/13 11:31:44;;;;;;;3.95;1.83;;;18.90;60.60;;;;;;5106512;27;45549;-70
2023/05/13 11:34:15;;;;;;;4.63;1.75;;;18.90;60.60;;;;;;5108182;27;45622;-70
2023/05/13 11:36:43;;;;;;;6.05;2.00;;;19.00;60.70;;;;;;5107466;27;45495;-70
2023/05/13 11:39:12;;;;;;;6.22;1.88;;;19.00;60.70;;;;;;5107733;27;45374;-71
2023/05/13 11:41:41;;;;;;;8.70;2.08;;;19.00;60.70;;;;;;5107940;27;45445;-70
2023/05/13 11:44:09;;;;;;;4.03;1.58;;;19.00;60.70;;;;;;5107827;27;45504;-71
2023/05/13 11:46:36;;;;;;;4.32;1.92;;;19.00;60.80;;;;;;5106530;27;45418;-69
2023/05/13 11:49:03;;;;;;;5.03;1.70;;;19.10;60.80;;;;;;5107121;27;45564;-69
2023/05/13 11:51:30;;;;;;;5.50;2.00;;;19.10;60.60;;;;;;5107762;27;45371;-69
2023/05/13 11:54:04;;;;;;;6.63;1.80;;;19.10;60.60;;;;;;5107161;27;46398;-70
2023/05/13 11:56:31;;;;;;;7.90;2.28;;;19.10;60.60;;;;;;5107765;27;45301;-70
2023/05/13 12:02:01;;;;;;;5.88;1.80;;;19.20;60.50;;;;;;5101847;27;45413;-70
2023/05/13 12:04:29;;;;;;;4.80;1.90;;;19.30;61.30;;;;;;5094461;27;45264;-71
2023/05/13 12:06:56;;;;;;;6.80;1.80;;;19.30;60.60;;;;;;5083499;27;45164;-71
2023/05/13 12:09:23;;;;;;;5.90;2.05;;;19.30;60.70;;;;;;5085327;27;45314;-71
2023/05/13 12:11:50;;;;;;;6.15;1.85;;;19.40;60.80;;;;;;5082285;27;46760;-71
2023/05/13 12:14:17;;;;;;;8.48;2.38;;;19.40;60.80;;;;;;5088227;27;45432;-70
2023/05/13 12:16:44;;;;;;;21.02;5.63;;;19.50;60.70;;;;;;5093176;27;45427;-71
2023/05/13 12:19:12;;;;;;;14.80;5.55;;;19.50;60.50;;;;;;5082003;27;45311;-71
2023/05/13 12:21:39;;;;;;;16.55;4.63;;;19.50;60.60;;;;;;5081567;27;46482;-71
2023/05/13 12:24:19;;;;;;;13.18;4.43;;;19.50;60.60;;;;;;5081478;27;45442;-72
2023/05/13 12:26:46;;;;;;;12.50;4.25;;;19.50;60.50;;;;;;5101803;27;45340;-75
2023/05/13 12:29:13;;;;;;;13.20;4.70;;;19.50;60.40;;;;;;5085973;27;45403;-72
2023/05/13 12:31:41;;;;;;;8.88;3.50;;;19.50;60.60;;;;;;5094411;27;46526;-71
2023/05/13 12:34:08;;;;;;;7.53;3.97;;;19.60;60.60;;;;;;5081388;27;45265;-71
2023/05/13 12:36:38;;;;;;;5.45;3.63;;;19.50;60.40;;;;;;5098407;27;45196;-71
2023/05/13 12:39:05;;;;;;;8.95;3.53;;;19.60;60.40;;;;;;5090934;27;45204;-71
2023/05/13 12:41:33;;;;;;;7.93;3.28;;;19.50;60.30;;;;;;5090891;27;45552;-70
2023/05/13 12:44:01;;;;;;;11.70;3.63;;;19.50;60.60;;;;;;5097800;27;45260;-70
2023/05/13 12:46:28;;;;;;;6.53;3.13;;;19.50;60.90;;;;;;5088344;27;45240;-72
2023/05/13 12:48:55;;;;;;;5.43;3.22;;;19.50;61.00;;;;;;5083508;27;45547;-72
2023/05/13 12:51:22;;;;;;;9.85;3.15;;;19.50;61.80;;;;;;5083975;27;45473;-73